sensor_id;sensor_type;location;lat;lon;timestamp;pressure;altitude;pressure_sealevel;temperature;humidity
76050;BME280;64967;50.234;19.224;2023-10-09T00:02:09;76896.81;;;-143.90;100.00
76050;BME280;64967;50.234;19.224;2023-10-09T00:04:37;76909.22;;;-143.90;100.00
76050;BME280;64967;50.234;19.224;2023-10-09T00:07:07;76905.06;;;-143.90;100.00
76050;BME280;64967;50.234;19.224;2023-10-09T00:09:35;76909.22;;;-143.90;100.00
76050;BME280;64967;50.234;19.224;2023-10-09T00:12:18;76923.69;;;-143.90;100.00
76050;BME280;64967;50.234;19.224;2023-10-09T00:14:50;76925.75;;;-143.90;100.00
76050;BME280;64967;50.234;19.224;2023-10-09T00:17:17;76913.34;;;-143.90;100.00
76050;BME280;64967;50.234;19.224;2023-10-09T00:19:47;76905.06;;;-143.90;100.00
76050;BME280;64967;50.234;19.224;2023-10-09T00:22:16;76896.81;;;-143.90;100.00
76050;BME280;64967;50.234;19.224;2023-10-09T00:25:05;76896.81;;;-143.90;100.00
76050;BME280;64967;50.234;19.224;2023-10-09T00:27:42;76892.66;;;-143.90;100.00
76050;BME280;64967;50.234;19.224;2023-10-09T00:30:13;76898.88;;;-143.90;100.00
76050;BME280;64967;50.234;19.224;2023-10-09T00:32:45;76892.66;;;-143.90;100.00
76050;BME280;64967;50.234;19.224;2023-10-09T00:35:37;76880.25;;;-143.90;100.00
76050;BME280;64967;50.234;19.224;2023-10-09T00:38:13;76871.97;;;-143.90;100.00
76050;BME280;64967;50.234;19.224;2023-10-09T00:40:51;76857.50;;;-143.90;100.00
76050;BME280;64967;50.234;19.224;2023-10-09T00:43:37;76838.88;;;-143.90;100.00
76050;BME280;64967;50.234;19.224;2023-10-09T00:46:05;76830.63;;;-143.90;100.00
76050;BME280;64967;50.234;19.224;2023-10-09T00:48:56;76826.47;;;-143.90;100.00
76050;BME280;64967;50.234;19.224;2023-10-09T00:51:24;76834.75;;;-143.90;100.00
76050;BME280;64967;50.234;19.224;2023-10-09T00:53:57;76822.34;;;-143.90;100.00
76050;BME280;64967;50.234;19.224;2023-10-09T00:56:25;76818.22;;;-143.90;100.00
76050;BME280;64967;50.234;19.224;2023-10-09T00:58:59;76809.94;;;-143.90;100.00
76050;BME280;64967;50.234;19.224;2023-10-09T01:01:36;76801.66;;;-143.90;100.00
76050;BME280;64967;50.234;19.224;2023-10-09T01:04:07;76816.13;;;-143.90;100.00
76050;BME280;64967;50.234;19.224;2023-10-09T01:06:38;76822.34;;;-143.90;100.00
76050;BME280;64967;50.234;19.224;2023-10-09T01:09:12;76822.34;;;-143.90;100.00
76050;BME280;64967;50.234;19.224;2023-10-09T01:11:41;76812.00;;;-143.90;100.00
76050;BME280;64967;50.234;19.224;2023-10-09T01:14:26;76818.22;;;-143.90;100.00
76050;BME280;64967;50.234;19.224;2023-10-09T01:16:53;76814.06;;;-143.90;100.00
76050;BME280;64967;50.234;19.224;2023-10-09T01:19:21;76818.22;;;-143.90;100.00
76050;BME280;64967;50.234;19.224;2023-10-09T01:21:51;76818.22;;;-143.90;100.00
76050;BME280;64967;50.234;19.224;2023-10-09T01:24:18;76809.94;;;-143.90;100.00
76050;BME280;64967;50.234;19.224;2023-10-09T01:26:49;76816.13;;;-143.90;100.00
76050;BME280;64967;50.234;19.224;2023-10-09T01:29:21;76805.78;;;-143.90;100.00
76050;BME280;64967;50.234;19.224;2023-10-09T01:31:52;76805.78;;;-143.90;100.00
76050;BME280;64967;50.234;19.224;2023-10-09T01:34:27;76795.47;;;-143.90;100.00
76050;BME280;64967;50.234;19.224;2023-10-09T01:37:20;76793.38;;;-143.90;100.00
76050;BME280;64967;50.234;19.224;2023-10-09T01:39:56;76789.25;;;-143.90;100.00
76050;BME280;64967;50.234;19.224;2023-10-09T01:42:46;76793.38;;;-143.90;100.00
76050;BME280;64967;50.234;19.224;2023-10-09T01:45:12;76791.31;;;-143.90;100.00
76050;BME280;64967;50.234;19.224;2023-10-09T01:47:45;76791.31;;;-143.90;100.00
76050;BME280;64967;50.234;19.224;2023-10-09T01:50:18;76778.91;;;-143.90;100.00
76050;BME280;64967;50.234;19.224;2023-10-09T01:52:47;76762.38;;;-143.90;100.00
76050;BME280;64967;50.234;19.224;2023-10-09T01:55:16;76758.22;;;-143.90;100.00
76050;BME280;64967;50.234;19.224;2023-10-09T01:58:07;76760.28;;;-143.90;100.00
76050;BME280;64967;50.234;19.224;2023-10-09T02:00:51;76747.88;;;-143.90;100.00
76050;BME280;64967;50.234;19.224;2023-10-09T02:03:23;76735.47;;;-143.90;100.00
76050;BME280;64967;50.234;19.224;2023-10-09T02:05:55;76725.13;;;-143.90;100.00
76050;BME280;64967;50.234;19.224;2023-10-09T02:08:44;76706.53;;;-143.90;100.00
76050;BME280;64967;50.234;19.224;2023-10-09T02:11:16;76689.97;;;-143.90;100.00
76050;BME280;64967;50.234;19.224;2023-10-09T02:14:04;76685.84;;;-143.90;100.00
76050;BME280;64967;50.234;19.224;2023-10-09T02:16:47;76698.25;;;-143.90;100.00
76050;BME280;64967;50.234;19.224;2023-10-09T02:19:40;76677.56;;;-143.90;100.00
76050;BME280;64967;50.234;19.224;2023-10-09T02:22:11;76671.38;;;-143.90;100.00
76050;BME280;64967;50.234;19.224;2023-10-09T02:24:43;76665.16;;;-143.90;100.00
76050;BME280;64967;50.234;19.224;2023-10-09T02:27:17;76661.03;;;-143.90;100.00
76050;BME280;64967;50.234;19.224;2023-10-09T02:30:06;76656.88;;;-143.90;100.00
76050;BME280;64967;50.234;19.224;2023-10-09T02:32:45;76656.88;;;-143.90;100.00
76050;BME280;64967;50.234;19.224;2023-10-09T02:35:16;76665.16;;;-143.90;100.00
76050;BME280;64967;50.234;19.224;2023-10-09T02:37:54;76665.16;;;-143.90;100.00
76050;BME280;64967;50.234;19.224;2023-10-09T02:40:29;76656.88;;;-143.90;100.00
76050;BME280;64967;50.234;19.224;2023-10-09T02:43:07;76640.34;;;-143.90;100.00
76050;BME280;64967;50.234;19.224;2023-10-09T02:45:39;76638.28;;;-143.90;100.00
76050;BME280;64967;50.234;19.224;2023-10-09T02:48:17;76630.00;;;-143.90;100.00
76050;BME280;64967;50.234;19.224;2023-10-09T02:50:51;76623.78;;;-143.90;100.00
76050;BME280;64967;50.234;19.224;2023-10-09T02:53:17;76632.06;;;-143.90;100.00
76050;BME280;64967;50.234;19.224;2023-10-09T02:55:55;76636.22;;;-143.90;100.00
76050;BME280;64967;50.234;19.224;2023-10-09T02:58:40;76644.47;;;-143.90;100.00
76050;BME280;64967;50.234;19.224;2023-10-09T03:01:11;76625.88;;;-143.90;100.00
76050;BME280;64967;50.234;19.224;2023-10-09T03:03:42;76623.78;;;-143.90;100.00
76050;BME280;64967;50.234;19.224;2023-10-09T03:06:14;76611.38;;;-143.90;100.00
76050;BME280;64967;50.234;19.224;2023-10-09T03:08:50;76611.38;;;-143.90;100.00
76050;BME280;64967;50.234;19.224;2023-10-09T03:11:17;76613.47;;;-143.90;100.00
76050;BME280;64967;50.234;19.224;2023-10-09T03:13:45;76594.84;;;-143.90;100.00
76050;BME280;64967;50.234;19.224;2023-10-09T03:16:11;76596.91;;;-143.90;100.00
76050;BME280;64967;50.234;19.224;2023-10-09T03:18:45;76594.84;;;-143.90;100.00
76050;BME280;64967;50.234;19.224;2023-10-09T03:21:13;76596.91;;;-143.90;100.00
76050;BME280;64967;50.234;19.224;2023-10-09T03:23:40;76603.13;;;-143.90;100.00
76050;BME280;64967;50.234;19.224;2023-10-09T03:26:07;76588.63;;;-143.90;100.00
76050;BME280;64967;50.234;19.224;2023-10-09T03:28:48;76588.63;;;-143.90;100.00
76050;BME280;64967;50.234;19.224;2023-10-09T03:31:15;76586.56;;;-143.90;100.00
76050;BME280;64967;50.234;19.224;2023-10-09T03:33:41;76584.50;;;-143.90;100.00
76050;BME280;64967;50.234;19.224;2023-10-09T03:36:08;76590.72;;;-143.90;100.00
76050;BME280;64967;50.234;19.224;2023-10-09T03:38:38;76584.50;;;-143.90;100.00
76050;BME280;64967;50.234;19.224;2023-10-09T03:41:06;76574.16;;;-143.90;100.00
76050;BME280;64967;50.234;19.224;2023-10-09T03:43:34;76559.69;;;-143.90;100.00
76050;BME280;64967;50.234;19.224;2023-10-09T03:46:05;76557.63;;;-143.90;100.00
76050;BME280;64967;50.234;19.224;2023-10-09T03:48:32;76547.28;;;-143.90;100.00
76050;BME280;64967;50.234;19.224;2023-10-09T03:50:59;76532.78;;;-143.90;100.00
76050;BME280;64967;50.234;19.224;2023-10-09T03:53:35;76532.78;;;-143.90;100.00
76050;BME280;64967;50.234;19.224;2023-10-09T03:56:04;76524.53;;;-143.90;100.00
76050;BME280;64967;50.234;19.224;2023-10-09T03:58:39;76512.13;;;-143.90;100.00
76050;BME280;64967;50.234;19.224;2023-10-09T04:01:09;76501.78;;;-143.90;100.00
76050;BME280;64967;50.234;19.224;2023-10-09T04:03:56;76503.84;;;-143.90;100.00
76050;BME280;64967;50.234;19.224;2023-10-09T04:06:27;76495.56;;;-143.90;100.00
76050;BME280;64967;50.234;19.224;2023-10-09T04:09:04;76493.50;;;-143.90;100.00
76050;BME280;64967;50.234;19.224;2023-10-09T04:11:51;76476.97;;;-143.90;100.00
76050;BME280;64967;50.234;19.224;2023-10-09T04:14:39;76470.75;;;-143.90;100.00
76050;BME280;64967;50.234;19.224;2023-10-09T04:17:16;76472.81;;;-143.90;100.00
76050;BME280;64967;50.234;19.224;2023-10-09T04:19:49;76472.81;;;-143.90;100.00
76050;BME280;64967;50.234;19.224;2023-10-09T04:22:39;76470.75;;;-143.90;100.00
76050;BME280;64967;50.234;19.224;2023-10-09T04:25:17;76464.56;;;-143.90;100.00
76050;BME280;64967;50.234;19.224;2023-10-09T04:28:01;76458.34;;;-143.90;100.00
76050;BME280;64967;50.234;19.224;2023-10-09T04:30:46;76443.88;;;-143.90;100.00
76050;BME280;64967;50.234;19.224;2023-10-09T04:33:22;76450.06;;;-143.90;100.00
76050;BME280;64967;50.234;19.224;2023-10-09T04:36:03;76437.66;;;-143.90;100.00
76050;BME280;64967;50.234;19.224;2023-10-09T04:38:45;76431.47;;;-143.90;100.00
76050;BME280;64967;50.234;19.224;2023-10-09T04:41:41;76423.19;;;-143.90;100.00
76050;BME280;64967;50.234;19.224;2023-10-09T04:44:09;76425.25;;;-143.90;100.00
76050;BME280;64967;50.234;19.224;2023-10-09T04:46:55;76439.75;;;-143.90;100.00
76050;BME280;64967;50.234;19.224;2023-10-09T04:49:40;76431.47;;;-143.90;100.00
76050;BME280;64967;50.234;19.224;2023-10-09T04:52:28;76441.81;;;-143.90;100.00
76050;BME280;64967;50.234;19.224;2023-10-09T04:54:58;76439.75;;;-143.90;100.00
76050;BME280;64967;50.234;19.224;2023-10-09T04:57:42;76423.19;;;-143.90;100.00
76050;BME280;64967;50.234;19.224;2023-10-09T05:00:14;76427.31;;;-143.90;100.00
76050;BME280;64967;50.234;19.224;2023-10-09T05:02:59;76417.00;;;-143.90;100.00
76050;BME280;64967;50.234;19.224;2023-10-09T05:05:31;76400.44;;;-143.90;100.00
76050;BME280;64967;50.234;19.224;2023-10-09T05:08:17;76398.38;;;-143.90;100.00
76050;BME280;64967;50.234;19.224;2023-10-09T05:10:58;76379.75;;;-143.90;100.00
76050;BME280;64967;50.234;19.224;2023-10-09T05:13:37;76371.50;;;-143.90;100.00
76050;BME280;64967;50.234;19.224;2023-10-09T05:16:16;76359.09;;;-143.90;100.00
76050;BME280;64967;50.234;19.224;2023-10-09T05:18:49;76346.69;;;-143.90;100.00
76050;BME280;64967;50.234;19.224;2023-10-09T05:21:39;76342.53;;;-143.90;100.00
76050;BME280;64967;50.234;19.224;2023-10-09T05:24:13;76334.25;;;-143.90;100.00
76050;BME280;64967;50.234;19.224;2023-10-09T05:26:42;76323.94;;;-143.90;100.00
76050;BME280;64967;50.234;19.224;2023-10-09T05:29:22;76326.00;;;-143.90;100.00
76050;BME280;64967;50.234;19.224;2023-10-09T05:31:55;76317.72;;;-143.90;100.00
76050;BME280;64967;50.234;19.224;2023-10-09T05:34:44;76313.59;;;-143.90;100.00
76050;BME280;64967;50.234;19.224;2023-10-09T05:37:43;76309.44;;;-143.90;100.00
76050;BME280;64967;50.234;19.224;2023-10-09T05:40:10;76303.25;;;-143.90;100.00
76050;BME280;64967;50.234;19.224;2023-10-09T05:42:44;76305.31;;;-143.90;100.00
76050;BME280;64967;50.234;19.224;2023-10-09T05:47:45;76297.03;;;-143.90;100.00
76050;BME280;64967;50.234;19.224;2023-10-09T05:50:20;76292.91;;;-143.90;100.00
76050;BME280;64967;50.234;19.224;2023-10-09T05:52:50;76309.44;;;-143.90;100.00
76050;BME280;64967;50.234;19.224;2023-10-09T05:55:18;76305.31;;;-143.90;100.00
76050;BME280;64967;50.234;19.224;2023-10-09T05:57:51;76309.44;;;-143.90;100.00
76050;BME280;64967;50.234;19.224;2023-10-09T06:00:37;76326.00;;;-143.90;100.00
76050;BME280;64967;50.234;19.224;2023-10-09T06:03:22;76323.94;;;-143.90;100.00
76050;BME280;64967;50.234;19.224;2023-10-09T06:05:54;76321.84;;;-143.90;100.00
76050;BME280;64967;50.234;19.224;2023-10-09T06:08:25;76313.59;;;-143.90;100.00
76050;BME280;64967;50.234;19.224;2023-10-09T06:11:08;76317.72;;;-143.90;100.00
76050;BME280;64967;50.234;19.224;2023-10-09T06:13:57;76311.53;;;-143.90;100.00
76050;BME280;64967;50.234;19.224;2023-10-09T06:16:30;76317.72;;;-143.90;100.00
76050;BME280;64967;50.234;19.224;2023-10-09T06:19:26;76307.38;;;-143.90;100.00
76050;BME280;64967;50.234;19.224;2023-10-09T06:21:57;76311.53;;;-143.90;100.00
76050;BME280;64967;50.234;19.224;2023-10-09T06:24:30;76305.31;;;-143.90;100.00
76050;BME280;64967;50.234;19.224;2023-10-09T06:27:09;76309.44;;;-143.90;100.00
76050;BME280;64967;50.234;19.224;2023-10-09T06:29:40;76305.31;;;-143.90;100.00
76050;BME280;64967;50.234;19.224;2023-10-09T06:32:17;76299.09;;;-143.90;100.00
76050;BME280;64967;50.234;19.224;2023-10-09T06:34:56;76288.78;;;-143.90;100.00
76050;BME280;64967;50.234;19.224;2023-10-09T06:37:47;76284.63;;;-143.90;100.00
76050;BME280;64967;50.234;19.224;2023-10-09T06:40:37;76280.50;;;-143.90;100.00
76050;BME280;64967;50.234;19.224;2023-10-09T06:43:22;76282.56;;;-143.90;100.00
76050;BME280;64967;50.234;19.224;2023-10-09T06:45:49;76276.38;;;-143.90;100.00
76050;BME280;64967;50.234;19.224;2023-10-09T06:48:25;76280.50;;;-143.90;100.00
76050;BME280;64967;50.234;19.224;2023-10-09T06:51:05;76288.78;;;-143.90;100.00
76050;BME280;64967;50.234;19.224;2023-10-09T06:53:57;76282.56;;;-143.90;100.00
76050;BME280;64967;50.234;19.224;2023-10-09T06:56:32;76278.44;;;-143.90;100.00
76050;BME280;64967;50.234;19.224;2023-10-09T06:59:06;76259.81;;;-143.90;100.00
76050;BME280;64967;50.234;19.224;2023-10-09T07:01:49;76255.69;;;-143.90;100.00
76050;BME280;64967;50.234;19.224;2023-10-09T07:04:37;76251.53;;;-143.90;100.00
76050;BME280;64967;50.234;19.224;2023-10-09T07:07:04;76261.88;;;-143.90;100.00
76050;BME280;64967;50.234;19.224;2023-10-09T07:09:42;76276.38;;;-143.90;100.00
76050;BME280;64967;50.234;19.224;2023-10-09T07:12:10;76274.28;;;-143.90;100.00
76050;BME280;64967;50.234;19.224;2023-10-09T07:14:41;76263.97;;;-143.90;100.00
76050;BME280;64967;50.234;19.224;2023-10-09T07:17:09;76255.69;;;-143.90;100.00
76050;BME280;64967;50.234;19.224;2023-10-09T07:19:54;76255.69;;;-143.90;100.00
76050;BME280;64967;50.234;19.224;2023-10-09T07:22:21;76251.53;;;-143.90;100.00
76050;BME280;64967;50.234;19.224;2023-10-09T07:24:56;76243.28;;;-143.90;100.00
76050;BME280;64967;50.234;19.224;2023-10-09T07:27:30;76245.34;;;-143.90;100.00
76050;BME280;64967;50.234;19.224;2023-10-09T07:30:19;76230.88;;;-143.90;100.00
76050;BME280;64967;50.234;19.224;2023-10-09T07:35:42;76218.47;;;-143.90;100.00
76050;BME280;64967;50.234;19.224;2023-10-09T07:38:09;76222.59;;;-143.90;100.00
76050;BME280;64967;50.234;19.224;2023-10-09T07:40:41;76216.41;;;-143.90;100.00
76050;BME280;64967;50.234;19.224;2023-10-09T07:43:31;76210.19;;;-143.90;100.00
76050;BME280;64967;50.234;19.224;2023-10-09T07:46:12;76216.41;;;-143.90;100.00
76050;BME280;64967;50.234;19.224;2023-10-09T07:49:03;76216.41;;;-143.90;100.00
76050;BME280;64967;50.234;19.224;2023-10-09T07:51:39;76222.59;;;-143.90;100.00
76050;BME280;64967;50.234;19.224;2023-10-09T07:54:10;76218.47;;;-143.90;100.00
76050;BME280;64967;50.234;19.224;2023-10-09T07:56:43;76214.31;;;-143.90;100.00
76050;BME280;64967;50.234;19.224;2023-10-09T07:59:13;76214.31;;;-143.90;100.00
76050;BME280;64967;50.234;19.224;2023-10-09T08:01:41;76212.25;;;-143.90;100.00
76050;BME280;64967;50.234;19.224;2023-10-09T08:04:29;76197.78;;;-143.90;100.00
76050;BME280;64967;50.234;19.224;2023-10-09T08:07:07;76193.66;;;-143.90;100.00
76050;BME280;64967;50.234;19.224;2023-10-09T08:09:55;76166.75;;;-143.90;100.00
76050;BME280;64967;50.234;19.224;2023-10-09T08:12:41;76146.09;;;-143.90;100.00
76050;BME280;64967;50.234;19.224;2023-10-09T08:15:11;76141.94;;;-143.90;100.00
76050;BME280;64967;50.234;19.224;2023-10-09T08:17:52;76135.75;;;-143.90;100.00
76050;BME280;64967;50.234;19.224;2023-10-09T08:20:27;76127.47;;;-143.90;100.00
76050;BME280;64967;50.234;19.224;2023-10-09T08:22:54;76127.47;;;-143.90;100.00
76050;BME280;64967;50.234;19.224;2023-10-09T08:25:26;76110.94;;;-143.90;100.00
76050;BME280;64967;50.234;19.224;2023-10-09T08:28:01;76092.31;;;-143.90;100.00
76050;BME280;64967;50.234;19.224;2023-10-09T08:30:41;76071.63;;;-143.90;100.00
76050;BME280;64967;50.234;19.224;2023-10-09T08:33:16;76044.75;;;-143.90;100.00
76050;BME280;64967;50.234;19.224;2023-10-09T08:35:56;76024.06;;;-143.90;100.00
76050;BME280;64967;50.234;19.224;2023-10-09T08:38:32;76011.66;;;-143.90;100.00
76050;BME280;64967;50.234;19.224;2023-10-09T08:41:10;75993.06;;;-143.90;100.00
76050;BME280;64967;50.234;19.224;2023-10-09T08:43:48;75970.31;;;-143.90;100.00
76050;BME280;64967;50.234;19.224;2023-10-09T08:46:27;75974.44;;;-143.90;100.00
76050;BME280;64967;50.234;19.224;2023-10-09T08:48:57;75949.63;;;-143.90;100.00
76050;BME280;64967;50.234;19.224;2023-10-09T08:51:26;75926.88;;;-143.90;100.00
76050;BME280;64967;50.234;19.224;2023-10-09T08:53:54;75926.88;;;-143.90;100.00
76050;BME280;64967;50.234;19.224;2023-10-09T08:56:21;75968.25;;;-143.90;100.00
76050;BME280;64967;50.234;19.224;2023-10-09T08:58:57;75986.84;;;-143.90;100.00
76050;BME280;64967;50.234;19.224;2023-10-09T09:01:24;75970.31;;;-143.90;100.00
76050;BME280;64967;50.234;19.224;2023-10-09T09:03:53;75949.63;;;-143.90;100.00
76050;BME280;64967;50.234;19.224;2023-10-09T09:06:23;75949.63;;;-143.90;100.00
76050;BME280;64967;50.234;19.224;2023-10-09T09:08:51;75947.56;;;-143.90;100.00
76050;BME280;64967;50.234;19.224;2023-10-09T09:11:26;75959.97;;;-143.90;100.00
76050;BME280;64967;50.234;19.224;2023-10-09T09:14:03;75953.78;;;-143.90;100.00
76050;BME280;64967;50.234;19.224;2023-10-09T09:16:41;75955.84;;;-143.90;100.00
76050;BME280;64967;50.234;19.224;2023-10-09T09:19:11;75964.13;;;-143.90;100.00
76050;BME280;64967;50.234;19.224;2023-10-09T09:21:57;75959.97;;;-143.90;100.00
76050;BME280;64967;50.234;19.224;2023-10-09T09:24:25;75955.84;;;-143.90;100.00
76050;BME280;64967;50.234;19.224;2023-10-09T09:27:02;75935.16;;;-143.90;100.00
76050;BME280;64967;50.234;19.224;2023-10-09T09:29:47;75926.88;;;-143.90;100.00
76050;BME280;64967;50.234;19.224;2023-10-09T09:32:28;75939.28;;;-143.90;100.00
76050;BME280;64967;50.234;19.224;2023-10-09T09:35:12;75945.50;;;-143.90;100.00
76050;BME280;64967;50.234;19.224;2023-10-09T09:37:53;75945.50;;;-143.90;100.00
76050;BME280;64967;50.234;19.224;2023-10-09T09:40:21;75943.44;;;-143.90;100.00
76050;BME280;64967;50.234;19.224;2023-10-09T09:43:01;75949.63;;;-143.90;100.00
76050;BME280;64967;50.234;19.224;2023-10-09T09:45:35;75933.09;;;-143.90;100.00
76050;BME280;64967;50.234;19.224;2023-10-09T09:48:03;75920.69;;;-143.90;100.00
76050;BME280;64967;50.234;19.224;2023-10-09T09:50:33;75910.34;;;-143.90;100.00
76050;BME280;64967;50.234;19.224;2023-10-09T09:53:03;75908.28;;;-143.90;100.00
76050;BME280;64967;50.234;19.224;2023-10-09T09:55:38;75908.28;;;-143.90;100.00
76050;BME280;64967;50.234;19.224;2023-10-09T09:58:14;75891.75;;;-143.90;100.00
76050;BME280;64967;50.234;19.224;2023-10-09T10:00:45;75891.75;;;-143.90;100.00
76050;BME280;64967;50.234;19.224;2023-10-09T10:03:23;75893.81;;;-143.90;100.00
76050;BME280;64967;50.234;19.224;2023-10-09T10:05:54;75926.88;;;-143.90;100.00
76050;BME280;64967;50.234;19.224;2023-10-09T10:08:24;75922.75;;;-143.90;100.00
76050;BME280;64967;50.234;19.224;2023-10-09T10:10:59;75945.50;;;-143.90;100.00
76050;BME280;64967;50.234;19.224;2023-10-09T10:16:22;75928.97;;;-143.90;100.00
76050;BME280;64967;50.234;19.224;2023-10-09T10:18:54;75928.97;;;-143.90;100.00
76050;BME280;64967;50.234;19.224;2023-10-09T10:21:34;75924.81;;;-143.90;100.00
76050;BME280;64967;50.234;19.224;2023-10-09T10:27:17;75908.28;;;-143.90;100.00
76050;BME280;64967;50.234;19.224;2023-10-09T10:32:59;75895.88;;;-143.90;100.00
76050;BME280;64967;50.234;19.224;2023-10-09T10:35:44;75900.00;;;-143.90;100.00
76050;BME280;64967;50.234;19.224;2023-10-09T10:38:24;75891.75;;;-143.90;100.00
76050;BME280;64967;50.234;19.224;2023-10-09T10:40:51;75893.81;;;-143.90;100.00
76050;BME280;64967;50.234;19.224;2023-10-09T10:43:24;75897.94;;;-143.90;100.00
76050;BME280;64967;50.234;19.224;2023-10-09T10:46:15;75908.28;;;-143.90;100.00
76050;BME280;64967;50.234;19.224;2023-10-09T10:48:42;75928.97;;;-143.90;100.00
76050;BME280;64967;50.234;19.224;2023-10-09T10:51:14;75920.69;;;-143.90;100.00
76050;BME280;64967;50.234;19.224;2023-10-09T10:53:53;75924.81;;;-143.90;100.00
76050;BME280;64967;50.234;19.224;2023-10-09T10:56:26;75908.28;;;-143.90;100.00
76050;BME280;64967;50.234;19.224;2023-10-09T10:59:02;75891.75;;;-143.90;100.00
76050;BME280;64967;50.234;19.224;2023-10-09T11:01:35;75885.53;;;-143.90;100.00
76050;BME280;64967;50.234;19.224;2023-10-09T11:04:26;75889.66;;;-143.90;100.00
76050;BME280;64967;50.234;19.224;2023-10-09T11:07:21;75873.13;;;-143.90;100.00
76050;BME280;64967;50.234;19.224;2023-10-09T11:09:53;75871.06;;;-143.90;100.00
76050;BME280;64967;50.234;19.224;2023-10-09T11:12:27;75858.66;;;-143.90;100.00
76050;BME280;64967;50.234;19.224;2023-10-09T11:15:14;75848.31;;;-143.90;100.00
76050;BME280;64967;50.234;19.224;2023-10-09T11:18:07;75848.31;;;-143.90;100.00
76050;BME280;64967;50.234;19.224;2023-10-09T11:20:34;75844.19;;;-143.90;100.00
76050;BME280;64967;50.234;19.224;2023-10-09T11:23:05;75840.03;;;-143.90;100.00
76050;BME280;64967;50.234;19.224;2023-10-09T11:25:39;75837.97;;;-143.90;100.00
76050;BME280;64967;50.234;19.224;2023-10-09T11:28:17;75844.19;;;-143.90;100.00
76050;BME280;64967;50.234;19.224;2023-10-09T11:31:08;75846.25;;;-143.90;100.00
76050;BME280;64967;50.234;19.224;2023-10-09T11:33:51;75831.78;;;-143.90;100.00
76050;BME280;64967;50.234;19.224;2023-10-09T11:36:20;75833.84;;;-143.90;100.00
76050;BME280;64967;50.234;19.224;2023-10-09T11:39:01;75842.13;;;-143.90;100.00
76050;BME280;64967;50.234;19.224;2023-10-09T11:41:40;75846.25;;;-143.90;100.00
76050;BME280;64967;50.234;19.224;2023-10-09T11:44:11;75846.25;;;-143.90;100.00
76050;BME280;64967;50.234;19.224;2023-10-09T11:47:00;75835.91;;;-143.90;100.00
76050;BME280;64967;50.234;19.224;2023-10-09T11:49:55;75821.44;;;-143.90;100.00
76050;BME280;64967;50.234;19.224;2023-10-09T11:52:32;75811.09;;;-143.90;100.00
76050;BME280;64967;50.234;19.224;2023-10-09T11:55:05;75813.16;;;-143.90;100.00
76050;BME280;64967;50.234;19.224;2023-10-09T11:57:33;75829.72;;;-143.90;100.00
76050;BME280;64967;50.234;19.224;2023-10-09T12:00:03;75837.97;;;-143.90;100.00
76050;BME280;64967;50.234;19.224;2023-10-09T12:02:54;75864.84;;;-143.90;100.00
76050;BME280;64967;50.234;19.224;2023-10-09T12:05:21;75862.78;;;-143.90;100.00
76050;BME280;64967;50.234;19.224;2023-10-09T12:07:49;75866.94;;;-143.90;100.00
76050;BME280;64967;50.234;19.224;2023-10-09T12:10:23;75848.31;;;-143.90;100.00
76050;BME280;64967;50.234;19.224;2023-10-09T12:12:53;75844.19;;;-143.90;100.00
76050;BME280;64967;50.234;19.224;2023-10-09T12:15:20;75842.13;;;-143.90;100.00
76050;BME280;64967;50.234;19.224;2023-10-09T12:17:47;75840.03;;;-143.90;100.00
76050;BME280;64967;50.234;19.224;2023-10-09T12:20:14;75833.84;;;-143.90;100.00
76050;BME280;64967;50.234;19.224;2023-10-09T12:23:01;75827.63;;;-143.90;100.00
76050;BME280;64967;50.234;19.224;2023-10-09T12:25:32;75821.44;;;-143.90;100.00
76050;BME280;64967;50.234;19.224;2023-10-09T12:27:59;75821.44;;;-143.90;100.00
76050;BME280;64967;50.234;19.224;2023-10-09T12:30:31;75817.31;;;-143.90;100.00
76050;BME280;64967;50.234;19.224;2023-10-09T12:33:05;75802.81;;;-143.90;100.00
76050;BME280;64967;50.234;19.224;2023-10-09T12:35:37;75806.97;;;-143.90;100.00
76050;BME280;64967;50.234;19.224;2023-10-09T12:38:06;75825.56;;;-143.90;100.00
76050;BME280;64967;50.234;19.224;2023-10-09T12:40:37;75809.03;;;-143.90;100.00
76050;BME280;64967;50.234;19.224;2023-10-09T12:43:04;75796.63;;;-143.90;100.00
76050;BME280;64967;50.234;19.224;2023-10-09T12:45:33;75792.50;;;-143.90;100.00
76050;BME280;64967;50.234;19.224;2023-10-09T12:48:00;75813.16;;;-143.90;100.00
76050;BME280;64967;50.234;19.224;2023-10-09T12:50:30;75804.91;;;-143.90;100.00
76050;BME280;64967;50.234;19.224;2023-10-09T12:53:01;75796.63;;;-143.90;100.00
76050;BME280;64967;50.234;19.224;2023-10-09T12:55:37;75794.56;;;-143.90;100.00
76050;BME280;64967;50.234;19.224;2023-10-09T12:58:11;75790.41;;;-143.90;100.00
76050;BME280;64967;50.234;19.224;2023-10-09T13:00:42;75794.56;;;-143.90;100.00
76050;BME280;64967;50.234;19.224;2023-10-09T13:03:16;75794.56;;;-143.90;100.00
76050;BME280;64967;50.234;19.224;2023-10-09T13:05:53;75802.81;;;-143.90;100.00
76050;BME280;64967;50.234;19.224;2023-10-09T13:08:26;75796.63;;;-143.90;100.00
76050;BME280;64967;50.234;19.224;2023-10-09T13:11:03;75809.03;;;-143.90;100.00
76050;BME280;64967;50.234;19.224;2023-10-09T13:13:44;75796.63;;;-143.90;100.00
76050;BME280;64967;50.234;19.224;2023-10-09T13:16:21;75788.34;;;-143.90;100.00
76050;BME280;64967;50.234;19.224;2023-10-09T13:18:58;75786.28;;;-143.90;100.00